WXM80 ListenWXM80 Stop

You find our weather info also at:

UK Metoffice

WeatherCloud

Weather Underground

Northeastern Weather Network

AWEKAS

Citizen Weather Observer Program (CWOP)

HAMweather, WeatherForYou, PWS Weather


Weather Underground History page Text

Daily Summary for September 18, 2017 Units:  English    Metric   Both
« Previous Day
Next Day »
Daily Weekly Monthly Yearly Custom
  High: Low: Average:
Temperature: 73.6 °F 67.3 °F 69.8 °F
Dew Point: 69.8 °F 65.6 °F 67.8 °F
Humidity: 97 % 87 % 93 %
Wind Speed: 5.9 mph 0.0 mph 1.9 mph
Wind Gust: 10.4 mph - -
Wind:- - ENE
Pressure: 30.08 in 30.01 in -
Precipitation: 0.02 in    
Historical Graphs
 
 
Tabular Data for September 18, 2017
Time Temperature Dew Point Pressure Wind Wind Speed Wind Gust Humidity Rainfall Rate (Hourly)
00:01 67.4 °F 65.6 °F 30.07 in Calm     94 % 0.00 in
00:06 67.4 °F 65.6 °F 30.07 in Calm   1.0 mph 94 % 0.00 in
00:11 67.5 °F 65.7 °F 30.07 in Calm   1.0 mph 94 % 0.00 in
00:16 67.5 °F 65.7 °F 30.07 in Calm   1.0 mph 94 % 0.00 in
00:21 67.5 °F 65.7 °F 30.07 in Calm     94 % 0.00 in
00:26 67.6 °F 65.8 °F 30.07 in Calm   1.0 mph 94 % 0.00 in
00:31 67.6 °F 65.8 °F 30.07 in ENE 1.5 mph 3.0 mph 94 % 0.00 in
00:36 67.6 °F 65.8 °F 30.07 in Calm   3.0 mph 94 % 0.00 in
00:41 67.7 °F 65.9 °F 30.07 in ENE 0.6 mph 2.0 mph 94 % 0.00 in
00:46 67.7 °F 65.9 °F 30.06 in NE 2.0 mph 3.0 mph 94 % 0.00 in
00:51 67.7 °F 65.9 °F 30.06 in Calm   3.0 mph 94 % 0.00 in
00:56 67.7 °F 65.9 °F 30.06 in NNE 1.3 mph 3.5 mph 94 % 0.00 in
01:01 67.7 °F 65.9 °F 30.07 in ENE 0.2 mph 3.5 mph 94 % 0.00 in
01:06 67.7 °F 65.9 °F 30.07 in Calm     94 % 0.00 in
01:11 67.7 °F 65.9 °F 30.07 in Calm     94 % 0.00 in
01:16 67.6 °F 65.8 °F 30.07 in Calm   1.2 mph 94 % 0.00 in
01:21 67.6 °F 65.8 °F 30.07 in Calm     94 % 0.00 in
01:26 67.7 °F 65.9 °F 30.07 in Calm     94 % 0.00 in
01:31 67.7 °F 65.9 °F 30.07 in Calm     94 % 0.00 in
01:36 67.7 °F 65.9 °F 30.07 in Calm   2.3 mph 94 % 0.00 in
01:41 67.7 °F 65.9 °F 30.07 in Calm   1.2 mph 94 % 0.00 in
01:46 67.7 °F 65.9 °F 30.07 in NE 0.1 mph 1.2 mph 94 % 0.00 in
01:51 67.7 °F 65.9 °F 30.07 in NE 0.1 mph 1.2 mph 94 % 0.00 in
01:56 67.7 °F 65.9 °F 30.07 in Calm     94 % 0.00 in
02:01 67.7 °F 65.9 °F 30.06 in Calm     94 % 0.00 in
02:07 67.7 °F 65.9 °F 30.06 in Calm     94 % 0.00 in
02:12 67.7 °F 65.9 °F 30.06 in Calm     94 % 0.00 in
02:17 67.7 °F 65.9 °F 30.06 in Calm     94 % 0.00 in
02:22 67.7 °F 65.9 °F 30.06 in Calm   1.2 mph 94 % 0.00 in
02:27 67.7 °F 65.9 °F 30.06 in Calm     94 % 0.00 in
02:32 67.7 °F 65.9 °F 30.06 in Calm     94 % 0.00 in
02:37 67.6 °F 65.8 °F 30.06 in Calm     94 % 0.00 in
02:42 67.6 °F 65.8 °F 30.06 in Calm     94 % 0.00 in
02:47 67.6 °F 66.1 °F 30.06 in Calm   1.2 mph 95 % 0.00 in
02:52 67.6 °F 66.1 °F 30.06 in Calm     95 % 0.00 in
02:57 67.6 °F 66.1 °F 30.06 in Calm     95 % 0.00 in
03:02 67.5 °F 66.0 °F 30.06 in Calm     95 % 0.00 in
03:07 67.5 °F 66.0 °F 30.06 in Calm     95 % 0.00 in
03:13 67.5 °F 66.0 °F 30.06 in ESE 0.3 mph   95 % 0.00 in
03:18 67.5 °F 66.0 °F 30.05 in Calm     95 % 0.00 in
03:23 67.5 °F 66.0 °F 30.05 in Calm     95 % 0.00 in
03:28 67.5 °F 66.0 °F 30.05 in Calm     95 % 0.00 in
03:33 67.4 °F 65.9 °F 30.05 in Calm     95 % 0.00 in
03:38 67.4 °F 65.9 °F 30.05 in SE 0.9 mph 2.3 mph 95 % 0.00 in
03:43 67.4 °F 65.9 °F 30.05 in Calm     95 % 0.00 in
03:48 67.4 °F 65.9 °F 30.05 in Calm     95 % 0.00 in
03:53 67.4 °F 65.9 °F 30.05 in Calm   1.2 mph 95 % 0.00 in
03:58 67.4 °F 65.9 °F 30.05 in Calm     95 % 0.00 in
04:03 67.4 °F 65.9 °F 30.05 in SE 0.1 mph 1.2 mph 95 % 0.00 in
04:08 67.5 °F 66.0 °F 30.05 in Calm   1.2 mph 95 % 0.00 in
04:14 67.5 °F 66.0 °F 30.05 in Calm     95 % 0.00 in
04:19 67.5 °F 66.0 °F 30.05 in Calm     95 % 0.00 in
04:29 67.5 °F 66.0 °F 30.05 in Calm     95 % 0.00 in
04:34 67.5 °F 66.3 °F 30.05 in Calm     96 % 0.00 in
04:39 67.5 °F 66.3 °F 30.05 in Calm     96 % 0.00 in
04:44 67.5 °F 66.3 °F 30.05 in Calm     96 % 0.00 in
04:49 67.5 °F 66.3 °F 30.05 in Calm     96 % 0.00 in
04:54 67.4 °F 66.2 °F 30.05 in Calm     96 % 0.00 in
04:59 67.4 °F 66.2 °F 30.04 in Calm     96 % 0.00 in
05:04 67.4 °F 66.2 °F 30.04 in Calm     96 % 0.00 in
05:09 67.4 °F 66.2 °F 30.04 in Calm     96 % 0.00 in
05:14 67.3 °F 66.1 °F 30.04 in Calm   1.2 mph 96 % 0.00 in
05:19 67.3 °F 66.1 °F 30.05 in Calm     96 % 0.00 in
05:25 67.3 °F 66.1 °F 30.04 in Calm     96 % 0.00 in
05:30 67.4 °F 66.2 °F 30.04 in Calm   1.2 mph 96 % 0.00 in
05:35 67.4 °F 66.2 °F 30.04 in ESE 0.2 mph 1.2 mph 96 % 0.00 in
05:40 67.5 °F 66.3 °F 30.04 in ENE 3.4 mph 4.6 mph 96 % 0.00 in
05:45 67.5 °F 66.3 °F 30.04 in NE 0.2 mph 2.3 mph 96 % 0.00 in
05:50 67.6 °F 66.4 °F 30.05 in ENE 1.6 mph 4.6 mph 96 % 0.00 in
05:55 67.6 °F 66.4 °F 30.04 in ENE 4.7 mph 7.0 mph 96 % 0.00 in
06:00 67.7 °F 66.5 °F 30.05 in ENE 2.7 mph 4.6 mph 96 % 0.00 in
06:05 67.6 °F 66.4 °F 30.05 in ENE 0.1 mph 1.2 mph 96 % 0.00 in
06:10 67.6 °F 66.7 °F 30.05 in ENE 0.3 mph 1.2 mph 97 % 0.00 in
06:15 67.6 °F 66.4 °F 30.05 in ENE 1.9 mph 4.6 mph 96 % 0.00 in
06:20 67.6 °F 66.4 °F 30.05 in ENE 2.5 mph 3.5 mph 96 % 0.00 in
06:26 67.5 °F 66.3 °F 30.05 in ENE 2.0 mph 8.0 mph 96 % 0.00 in
06:31 67.6 °F 66.4 °F 30.06 in ENE 2.0 mph 4.0 mph 96 % 0.00 in
06:36 67.6 °F 66.4 °F 30.06 in ENE 2.0 mph 5.0 mph 96 % 0.00 in
06:41 67.6 °F 66.4 °F 30.06 in ENE 1.0 mph 4.0 mph 96 % 0.00 in
06:46 67.6 °F 66.4 °F 30.06 in ENE 2.0 mph 6.0 mph 96 % 0.00 in
06:51 67.6 °F 66.4 °F 30.06 in ENE 2.0 mph 7.0 mph 96 % 0.00 in
06:56 67.7 °F 66.5 °F 30.06 in ENE 3.0 mph 8.0 mph 96 % 0.00 in
07:01 67.7 °F 66.5 °F 30.07 in ENE 2.5 mph 4.6 mph 96 % 0.00 in
07:06 67.8 °F 66.6 °F 30.07 in ENE 2.8 mph 4.6 mph 96 % 0.00 in
07:11 67.8 °F 66.6 °F 30.07 in ENE 1.9 mph 4.6 mph 96 % 0.00 in
07:16 67.8 °F 66.6 °F 30.07 in ENE 1.7 mph 3.5 mph 96 % 0.00 in
07:21 67.8 °F 66.6 °F 30.07 in North 3.1 mph 5.0 mph 96 % 0.00 in
07:26 67.8 °F 66.6 °F 30.08 in ENE 2.4 mph 4.6 mph 96 % 0.00 in
07:31 67.7 °F 66.5 °F 30.07 in NE 3.6 mph 6.9 mph 96 % 0.00 in
07:36 67.8 °F 66.6 °F 30.07 in ENE 4.0 mph 8.0 mph 96 % 0.01 in
07:41 67.7 °F 66.8 °F 30.07 in NE 4.3 mph 9.2 mph 97 % 0.01 in
07:46 67.8 °F 66.9 °F 30.07 in ENE 4.1 mph 8.1 mph 97 % 0.01 in
07:51 67.8 °F 66.9 °F 30.07 in NE 3.7 mph 8.0 mph 97 % 0.01 in
07:56 67.8 °F 66.9 °F 30.07 in ENE 4.3 mph 9.2 mph 97 % 0.01 in
08:01 67.8 °F 66.9 °F 30.08 in ENE 2.8 mph 4.6 mph 97 % 0.01 in
08:07 67.7 °F 66.8 °F 30.08 in ENE 4.4 mph 10.4 mph 97 % 0.01 in
08:12 67.7 °F 66.8 °F 30.07 in ENE 3.8 mph 8.1 mph 97 % 0.01 in
08:17 67.8 °F 66.9 °F 30.08 in ENE 2.7 mph 6.9 mph 97 % 0.01 in
08:22 67.8 °F 66.9 °F 30.08 in NE 3.0 mph 4.6 mph 97 % 0.02 in
08:32 67.9 °F 67.0 °F 30.08 in ENE 2.7 mph 8.1 mph 97 % 0.01 in
08:37 67.9 °F 67.0 °F 30.07 in ENE 1.8 mph 2.3 mph 97 % 0.01 in
08:42 67.9 °F 67.0 °F 30.08 in NE 5.1 mph 10.4 mph 97 % 0.01 in
08:47 68.0 °F 67.1 °F 30.08 in NNE 3.3 mph 3.5 mph 97 % 0.01 in
08:52 68.0 °F 67.1 °F 30.08 in NE 2.4 mph 8.1 mph 97 % 0.01 in
08:57 68.1 °F 67.2 °F 30.08 in ENE 1.3 mph 4.0 mph 97 % 0.01 in
09:02 68.2 °F 67.3 °F 30.08 in NNE 2.0 mph 5.0 mph 97 % 0.01 in
09:07 68.2 °F 67.3 °F 30.08 in NNE 2.3 mph 8.1 mph 97 % 0.01 in
09:08 68.2 °F 67.3 °F 30.08 in ENE 2.2 mph 8.1 mph 97 % 0.01 in
09:13 68.2 °F 67.3 °F 30.08 in NNE 2.9 mph 8.1 mph 97 % 0.01 in
09:18 68.1 °F 67.2 °F 30.08 in NE 2.9 mph 4.6 mph 97 % 0.01 in
09:23 68.1 °F 67.2 °F 30.08 in NE 2.8 mph 5.8 mph 97 % 0.00 in
09:28 68.1 °F 67.2 °F 30.08 in ENE 4.1 mph 8.1 mph 97 % 0.00 in
09:33 68.1 °F 67.2 °F 30.08 in NE 2.8 mph 4.6 mph 97 % 0.00 in
09:38 68.1 °F 67.2 °F 30.08 in ENE 4.2 mph 7.0 mph 97 % 0.00 in
09:43 68.2 °F 67.3 °F 30.08 in ENE 2.9 mph 5.0 mph 97 % 0.00 in
09:48 68.2 °F 67.3 °F 30.08 in NE 2.8 mph 6.9 mph 97 % 0.00 in
09:53 68.3 °F 67.4 °F 30.08 in NE 3.7 mph 7.0 mph 97 % 0.00 in
09:58 68.3 °F 67.4 °F 30.08 in ENE 2.9 mph 5.0 mph 97 % 0.00 in
10:03 68.3 °F 67.4 °F 30.08 in ENE 5.9 mph 8.1 mph 97 % 0.00 in
10:09 68.2 °F 67.3 °F 30.08 in NE 4.0 mph 6.9 mph 97 % 0.00 in
10:14 68.2 °F 67.3 °F 30.08 in ENE 5.0 mph 9.2 mph 97 % 0.00 in
10:19 68.2 °F 67.3 °F 30.08 in ENE 4.0 mph 9.2 mph 97 % 0.00 in
10:24 68.1 °F 67.2 °F 30.08 in NNE 4.4 mph 8.1 mph 97 % 0.00 in
10:29 68.0 °F 67.1 °F 30.08 in ENE 5.0 mph 9.2 mph 97 % 0.00 in
10:34 68.0 °F 67.1 °F 30.07 in NE 4.8 mph 9.2 mph 97 % 0.00 in
10:39 68.1 °F 67.2 °F 30.07 in ENE 3.2 mph 6.9 mph 97 % 0.00 in
10:44 68.1 °F 67.2 °F 30.07 in ENE 3.3 mph 5.8 mph 97 % 0.00 in
10:49 68.1 °F 67.2 °F 30.08 in NE 4.7 mph 6.9 mph 97 % 0.00 in
10:54 68.1 °F 67.2 °F 30.07 in ENE 2.9 mph 6.9 mph 97 % 0.00 in
10:59 68.1 °F 67.2 °F 30.07 in East 3.2 mph 5.8 mph 97 % 0.00 in
11:09 68.3 °F 67.4 °F 30.07 in ENE 2.5 mph 9.0 mph 97 % 0.00 in
11:15 68.4 °F 67.5 °F 30.07 in NE 2.5 mph 5.8 mph 97 % 0.00 in
11:20 68.4 °F 67.5 °F 30.08 in NE 4.2 mph 6.9 mph 97 % 0.00 in
11:25 68.4 °F 67.2 °F 30.08 in ENE 3.0 mph 4.6 mph 96 % 0.00 in
11:30 68.5 °F 67.3 °F 30.07 in ENE 2.9 mph 6.9 mph 96 % 0.00 in
11:35 68.6 °F 67.4 °F 30.08 in NE 2.9 mph 4.6 mph 96 % 0.00 in
11:40 68.7 °F 67.5 °F 30.07 in ENE 3.9 mph 6.9 mph 96 % 0.00 in
11:45 68.8 °F 67.6 °F 30.08 in East 3.6 mph 5.8 mph 96 % 0.00 in
11:50 68.9 °F 67.7 °F 30.07 in NE 2.0 mph 8.1 mph 96 % 0.00 in
11:55 69.1 °F 67.9 °F 30.07 in ENE 2.6 mph 3.5 mph 96 % 0.00 in
12:00 69.2 °F 68.0 °F 30.07 in NE 2.9 mph 7.0 mph 96 % 0.00 in
12:05 69.4 °F 67.9 °F 30.07 in NE 2.2 mph 3.5 mph 95 % 0.00 in
12:10 69.5 °F 68.0 °F 30.07 in NE 3.8 mph 8.1 mph 95 % 0.00 in
12:16 69.7 °F 68.2 °F 30.07 in ENE 2.0 mph 6.0 mph 95 % 0.00 in
12:21 69.9 °F 68.1 °F 30.07 in NE 2.3 mph 4.6 mph 94 % 0.00 in
12:26 70.0 °F 68.2 °F 30.07 in East 3.5 mph 8.0 mph 94 % 0.00 in
12:31 70.0 °F 68.2 °F 30.07 in East 3.7 mph 6.0 mph 94 % 0.00 in
12:36 70.1 °F 68.0 °F 30.06 in ENE 3.8 mph 9.2 mph 93 % 0.00 in
12:41 70.2 °F 68.1 °F 30.06 in ENE 3.5 mph 6.9 mph 93 % 0.00 in
12:46 70.3 °F 68.2 °F 30.06 in ENE 3.5 mph 6.9 mph 93 % 0.00 in
12:51 70.4 °F 68.3 °F 30.06 in ENE 1.8 mph 3.5 mph 93 % 0.00 in
12:56 70.6 °F 68.5 °F 30.06 in ENE 1.4 mph 3.5 mph 93 % 0.00 in
13:01 70.8 °F 68.7 °F 30.06 in ENE 2.2 mph 3.5 mph 93 % 0.00 in
13:06 71.0 °F 68.9 °F 30.06 in ENE 1.8 mph 2.3 mph 93 % 0.00 in
13:12 71.2 °F 69.1 °F 30.06 in ENE 2.4 mph 3.5 mph 93 % 0.00 in
13:17 71.3 °F 68.9 °F 30.06 in ENE 2.5 mph 4.0 mph 92 % 0.00 in
13:22 71.5 °F 69.1 °F 30.06 in ENE 1.8 mph 3.5 mph 92 % 0.00 in
13:27 71.7 °F 68.9 °F 30.06 in ENE 2.6 mph 3.5 mph 91 % 0.00 in
13:32 71.7 °F 68.9 °F 30.06 in ENE 2.8 mph 3.5 mph 91 % 0.00 in
13:37 71.7 °F 68.9 °F 30.05 in ENE 1.8 mph 3.0 mph 91 % 0.00 in
13:42 71.6 °F 68.5 °F 30.05 in ENE 2.4 mph 6.9 mph 90 % 0.00 in
13:47 71.6 °F 68.5 °F 30.05 in ENE 1.8 mph 3.5 mph 90 % 0.00 in
13:52 71.6 °F 68.8 °F 30.05 in East 2.8 mph 5.0 mph 91 % 0.00 in
13:57 71.7 °F 68.9 °F 30.05 in ENE 3.1 mph 7.0 mph 91 % 0.00 in
14:02 71.7 °F 68.9 °F 30.04 in ENE 2.5 mph 4.0 mph 91 % 0.00 in
14:08 71.8 °F 68.7 °F 30.04 in ENE 1.6 mph 3.5 mph 90 % 0.00 in
14:13 71.9 °F 69.1 °F 30.04 in ENE 2.6 mph 4.6 mph 91 % 0.00 in
14:18 71.9 °F 68.8 °F 30.04 in ENE 2.3 mph 4.6 mph 90 % 0.00 in
14:23 72.0 °F 68.9 °F 30.04 in ENE 2.5 mph 5.8 mph 90 % 0.00 in
14:28 72.0 °F 68.9 °F 30.04 in ENE 2.9 mph 3.5 mph 90 % 0.00 in
14:33 72.1 °F 69.0 °F 30.04 in ENE 2.0 mph 3.5 mph 90 % 0.00 in
14:38 72.2 °F 69.1 °F 30.04 in ENE 1.7 mph 3.5 mph 90 % 0.00 in
14:43 72.3 °F 69.2 °F 30.04 in East 3.4 mph 4.6 mph 90 % 0.00 in
14:48 72.4 °F 69.3 °F 30.04 in ENE 4.0 mph 4.6 mph 90 % 0.00 in
14:54 72.4 °F 69.0 °F 30.04 in East 2.3 mph 3.5 mph 89 % 0.00 in
14:59 72.5 °F 69.4 °F 30.04 in ENE 3.0 mph 8.1 mph 90 % 0.00 in
15:05 72.6 °F 69.2 °F 30.04 in ENE 3.4 mph 4.6 mph 89 % 0.00 in
15:07 72.7 °F 69.3 °F 30.04 in ENE 1.5 mph 3.5 mph 89 % 0.00 in
15:10 72.8 °F 69.7 °F 30.04 in ENE 2.5 mph 3.5 mph 90 % 0.00 in
15:12 72.9 °F 69.8 °F 30.04 in ENE 1.3 mph 3.5 mph 90 % 0.00 in
15:13 72.9 °F 69.8 °F 30.04 in ENE 1.7 mph 4.0 mph 90 % 0.00 in
15:17 73.0 °F 69.6 °F 30.04 in ENE 2.2 mph 3.5 mph 89 % 0.00 in
15:18 73.0 °F 69.6 °F 30.04 in East 2.8 mph 5.0 mph 89 % 0.00 in
15:20 73.1 °F 69.3 °F 30.04 in East 2.1 mph 3.5 mph 88 % 0.00 in
15:23 73.1 °F 69.3 °F 30.04 in ENE 2.6 mph 4.0 mph 88 % 0.00 in
15:24 73.1 °F 69.3 °F 30.05 in ENE 1.8 mph 3.5 mph 88 % 0.00 in
15:26 73.1 °F 69.3 °F 30.05 in ENE 2.3 mph 4.0 mph 88 % 0.00 in
15:27 73.1 °F 69.3 °F 30.05 in ENE 2.5 mph 3.5 mph 88 % 0.00 in
15:28 73.1 °F 69.3 °F 30.04 in ENE 1.8 mph 3.5 mph 88 % 0.00 in
15:32 73.1 °F 69.3 °F 30.04 in ENE 2.5 mph 5.8 mph 88 % 0.00 in
15:37 73.1 °F 69.3 °F 30.04 in ENE 2.1 mph 3.5 mph 88 % 0.00 in
15:42 73.1 °F 69.3 °F 30.04 in East 2.8 mph 4.6 mph 88 % 0.00 in
15:47 73.1 °F 69.3 °F 30.04 in ENE 2.5 mph 4.6 mph 88 % 0.00 in
15:49 73.2 °F 69.4 °F 30.04 in East 2.2 mph 3.5 mph 88 % 0.00 in
15:54 73.3 °F 69.5 °F 30.04 in East 2.4 mph 3.5 mph 88 % 0.00 in
15:55 73.3 °F 69.2 °F 30.04 in East 1.5 mph 3.5 mph 87 % 0.00 in
15:56 73.3 °F 69.2 °F 30.04 in East 2.2 mph 3.5 mph 87 % 0.00 in
15:58 73.4 °F 69.3 °F 30.04 in ESE 1.4 mph 3.5 mph 87 % 0.00 in
16:01 73.4 °F 69.3 °F 30.04 in East 1.5 mph 2.3 mph 87 % 0.00 in
16:03 73.5 °F 69.7 °F 30.04 in East 1.9 mph 3.5 mph 88 % 0.00 in
16:07 73.6 °F 69.5 °F 30.04 in SE 1.2 mph 4.6 mph 87 % 0.00 in
16:08 73.6 °F 69.5 °F 30.04 in East 2.4 mph 3.5 mph 87 % 0.00 in
16:13 73.6 °F 69.5 °F 30.04 in East 2.5 mph 3.5 mph 87 % 0.00 in
16:18 73.6 °F 69.5 °F 30.04 in ENE 2.4 mph 3.5 mph 87 % 0.00 in
16:23 73.5 °F 69.4 °F 30.04 in ENE 1.9 mph 3.5 mph 87 % 0.00 in
16:29 73.4 °F 69.3 °F 30.03 in ENE 2.3 mph 3.5 mph 87 % 0.00 in
16:30 73.3 °F 69.2 °F 30.04 in ENE 2.0 mph 4.6 mph 87 % 0.00 in
16:33 73.2 °F 69.1 °F 30.04 in ENE 2.2 mph 4.0 mph 87 % 0.00 in
16:36 73.1 °F 69.0 °F 30.04 in ENE 1.7 mph 4.6 mph 87 % 0.00 in
16:38 73.0 °F 69.2 °F 30.04 in ENE 2.8 mph 4.6 mph 88 % 0.00 in
16:41 72.9 °F 69.1 °F 30.03 in ENE 2.1 mph 3.5 mph 88 % 0.00 in
16:47 72.9 °F 69.1 °F 30.03 in ENE 2.2 mph 3.5 mph 88 % 0.00 in
16:50 72.8 °F 69.0 °F 30.04 in ENE 2.4 mph 3.5 mph 88 % 0.00 in
16:51 72.8 °F 69.0 °F 30.04 in ENE 2.4 mph 3.5 mph 88 % 0.00 in
16:56 72.6 °F 68.8 °F 30.03 in ENE 2.2 mph 3.5 mph 88 % 0.00 in
16:57 72.6 °F 68.8 °F 30.03 in East 2.1 mph 3.5 mph 88 % 0.00 in
16:58 72.6 °F 69.2 °F 30.04 in ENE 2.0 mph 4.6 mph 89 % 0.00 in
17:04 72.4 °F 68.6 °F 30.03 in ENE 2.8 mph 3.5 mph 88 % 0.00 in
17:09 72.4 °F 69.0 °F 30.03 in ENE 1.6 mph 3.5 mph 89 % 0.00 in
17:14 72.3 °F 68.9 °F 30.03 in ENE 3.0 mph 3.5 mph 89 % 0.00 in
17:19 72.2 °F 68.8 °F 30.03 in ENE 3.0 mph 4.6 mph 89 % 0.00 in
17:24 72.2 °F 68.8 °F 30.03 in NE 2.1 mph 3.5 mph 89 % 0.00 in
17:29 72.1 °F 68.7 °F 30.04 in ENE 1.1 mph 2.3 mph 89 % 0.00 in
17:34 72.1 °F 69.0 °F 30.03 in ENE 1.5 mph 3.5 mph 90 % 0.00 in
17:39 72.0 °F 68.9 °F 30.03 in ENE 2.6 mph 4.6 mph 90 % 0.00 in
17:44 71.9 °F 68.8 °F 30.03 in ENE 3.2 mph 3.5 mph 90 % 0.00 in
17:49 71.9 °F 68.8 °F 30.03 in ENE 1.7 mph 3.5 mph 90 % 0.00 in
17:54 71.9 °F 68.8 °F 30.03 in ENE 2.1 mph 6.9 mph 90 % 0.00 in
17:59 71.8 °F 68.7 °F 30.03 in ENE 1.5 mph 3.5 mph 90 % 0.00 in
18:05 71.7 °F 68.6 °F 30.03 in ENE 1.4 mph 2.3 mph 90 % 0.00 in
18:10 71.7 °F 68.6 °F 30.04 in NE 1.5 mph 3.5 mph 90 % 0.00 in
18:15 71.7 °F 68.9 °F 30.03 in ENE 1.7 mph 3.5 mph 91 % 0.00 in
18:20 71.7 °F 68.9 °F 30.03 in ENE 1.5 mph 4.6 mph 91 % 0.00 in
18:25 71.6 °F 68.8 °F 30.03 in East 1.6 mph 2.3 mph 91 % 0.00 in
18:30 71.5 °F 68.7 °F 30.03 in ENE 2.2 mph 3.5 mph 91 % 0.00 in
18:35 71.4 °F 68.6 °F 30.03 in ENE 1.5 mph 3.5 mph 91 % 0.00 in
18:40 71.3 °F 68.5 °F 30.03 in ENE 1.8 mph 3.5 mph 91 % 0.00 in
18:45 71.2 °F 68.8 °F 30.02 in ENE 1.7 mph 3.5 mph 92 % 0.00 in
18:50 71.2 °F 68.8 °F 30.02 in ENE 1.3 mph 3.5 mph 92 % 0.00 in
18:55 71.1 °F 68.7 °F 30.02 in ENE 2.4 mph 3.5 mph 92 % 0.00 in
19:01 71.0 °F 68.6 °F 30.03 in ENE 2.3 mph 3.5 mph 92 % 0.00 in
19:06 70.9 °F 68.5 °F 30.03 in ENE 1.0 mph 3.0 mph 92 % 0.00 in
19:11 70.8 °F 68.7 °F 30.03 in ENE 1.0 mph 3.0 mph 93 % 0.00 in
19:16 70.8 °F 68.7 °F 30.03 in Calm   3.0 mph 93 % 0.00 in
19:21 70.7 °F 68.6 °F 30.03 in Calm   1.0 mph 93 % 0.00 in
19:26 70.6 °F 68.5 °F 30.03 in ENE 1.0 mph 4.0 mph 93 % 0.00 in
19:31 70.5 °F 68.4 °F 30.03 in Calm   2.0 mph 93 % 0.00 in
19:36 70.5 °F 68.4 °F 30.04 in Calm   2.0 mph 93 % 0.00 in
19:41 70.5 °F 68.7 °F 30.04 in Calm   2.0 mph 94 % 0.00 in
19:46 70.5 °F 68.7 °F 30.04 in Calm   2.0 mph 94 % 0.00 in
19:51 70.6 °F 68.8 °F 30.04 in ENE 0.8 mph 2.3 mph 94 % 0.00 in
19:56 70.5 °F 68.7 °F 30.05 in ENE 1.0 mph 2.0 mph 94 % 0.00 in
20:01 70.5 °F 68.7 °F 30.04 in ENE 1.3 mph 2.3 mph 94 % 0.00 in
20:06 70.5 °F 68.7 °F 30.04 in ENE 1.9 mph 3.5 mph 94 % 0.00 in
20:11 70.5 °F 68.7 °F 30.04 in ENE 1.1 mph 3.5 mph 94 % 0.00 in
20:16 70.5 °F 68.7 °F 30.04 in ENE 2.1 mph 3.5 mph 94 % 0.00 in
20:21 70.6 °F 69.1 °F 30.04 in ENE 0.8 mph 1.2 mph 95 % 0.00 in
20:26 70.6 °F 69.1 °F 30.04 in ENE 1.8 mph 3.5 mph 95 % 0.00 in
20:31 70.6 °F 69.1 °F 30.04 in ENE 0.9 mph 2.3 mph 95 % 0.00 in
20:36 70.6 °F 69.1 °F 30.04 in ENE 0.9 mph 1.2 mph 95 % 0.00 in
20:41 70.6 °F 69.1 °F 30.04 in ENE 0.7 mph 2.3 mph 95 % 0.00 in
20:46 70.6 °F 69.1 °F 30.04 in ENE 0.2 mph 1.0 mph 95 % 0.00 in
20:51 70.7 °F 69.2 °F 30.04 in ENE 0.2 mph 1.2 mph 95 % 0.00 in
20:56 70.7 °F 69.2 °F 30.04 in ENE 1.5 mph 4.6 mph 95 % 0.00 in
21:01 70.7 °F 69.2 °F 30.04 in ENE 0.3 mph 1.2 mph 95 % 0.00 in
21:06 70.7 °F 69.2 °F 30.04 in ENE 0.3 mph 1.2 mph 95 % 0.00 in
21:11 70.8 °F 69.3 °F 30.04 in ENE 0.8 mph 2.3 mph 95 % 0.00 in
21:17 70.8 °F 69.3 °F 30.04 in ENE 0.5 mph 1.2 mph 95 % 0.00 in
21:22 70.8 °F 69.3 °F 30.04 in ENE 0.3 mph 1.2 mph 95 % 0.00 in
21:27 70.8 °F 69.3 °F 30.04 in ENE 0.3 mph 1.2 mph 95 % 0.00 in
21:32 70.9 °F 69.4 °F 30.03 in Calm   2.3 mph 95 % 0.00 in
21:37 70.9 °F 69.4 °F 30.03 in ENE 1.1 mph 2.3 mph 95 % 0.00 in
21:42 70.9 °F 69.4 °F 30.03 in ENE 1.0 mph 2.3 mph 95 % 0.00 in
21:47 70.8 °F 69.3 °F 30.03 in ENE 1.3 mph 3.5 mph 95 % 0.00 in
21:52 70.8 °F 69.3 °F 30.03 in East 2.4 mph 3.5 mph 95 % 0.00 in
21:57 70.8 °F 69.0 °F 30.03 in ENE 1.4 mph 2.3 mph 94 % 0.00 in
22:02 70.8 °F 69.0 °F 30.03 in ENE 1.2 mph 3.5 mph 94 % 0.00 in
22:07 70.8 °F 69.0 °F 30.03 in NE 1.7 mph 2.3 mph 94 % 0.00 in
22:12 70.9 °F 69.1 °F 30.03 in ENE 3.4 mph 3.5 mph 94 % 0.00 in
22:17 70.9 °F 69.1 °F 30.03 in ENE 2.1 mph 3.5 mph 94 % 0.00 in
22:23 71.0 °F 68.9 °F 30.03 in ENE 2.9 mph 4.6 mph 93 % 0.00 in
22:28 71.0 °F 68.9 °F 30.02 in ENE 3.1 mph 4.6 mph 93 % 0.00 in
22:33 71.0 °F 68.9 °F 30.03 in ENE 3.5 mph 9.2 mph 93 % 0.00 in
22:38 71.0 °F 68.9 °F 30.03 in ENE 3.1 mph 4.6 mph 93 % 0.00 in
22:43 71.0 °F 68.9 °F 30.03 in ENE 3.7 mph 6.9 mph 93 % 0.00 in
22:48 71.1 °F 69.0 °F 30.02 in ENE 3.6 mph 5.0 mph 93 % 0.00 in
22:53 71.1 °F 69.0 °F 30.02 in ENE 3.0 mph 4.6 mph 93 % 0.00 in
22:58 71.1 °F 68.7 °F 30.02 in East 4.9 mph 6.9 mph 92 % 0.00 in
23:03 71.1 °F 68.7 °F 30.02 in ENE 4.6 mph 9.2 mph 92 % 0.00 in
23:08 71.1 °F 68.7 °F 30.02 in NE 4.8 mph 6.9 mph 92 % 0.00 in
23:13 71.1 °F 68.7 °F 30.02 in ENE 3.1 mph 6.9 mph 92 % 0.00 in
23:18 71.1 °F 68.7 °F 30.02 in ENE 3.8 mph 5.8 mph 92 % 0.00 in
23:23 71.1 °F 68.7 °F 30.02 in East 3.0 mph 4.6 mph 92 % 0.00 in
23:28 71.1 °F 68.7 °F 30.02 in ENE 3.5 mph 8.1 mph 92 % 0.00 in
23:33 71.1 °F 68.7 °F 30.02 in East 2.8 mph 4.6 mph 92 % 0.00 in
23:38 71.1 °F 68.7 °F 30.01 in East 4.0 mph 5.0 mph 92 % 0.00 in
23:44 71.1 °F 68.7 °F 30.01 in ENE 2.5 mph 9.2 mph 92 % 0.00 in
23:49 71.1 °F 68.7 °F 30.01 in ENE 4.4 mph 9.2 mph 92 % 0.00 in
23:54 71.1 °F 68.7 °F 30.01 in ENE 2.9 mph 6.9 mph 92 % 0.00 in
23:59 71.0 °F 68.6 °F 30.01 in ENE 2.9 mph 3.5 mph 92 % 0.00 in
Crab Meadow Weather
Compliments of Weather Underground - 3 mb

Script developed by  Jim McMurry - jmcmurry@mwt.net Adapted for the template by  Wim van der Kuil - Leuven-Template.eu

Weather Terms: Funnel Cloud - A rotating column of air, extending from a towering cumulus or cumulonimbus cloud, that is not in contact with the ground.